createdAt,value
2022-08-22T00:00:42.885Z,69.60
2022-08-22T00:02:58.998Z,64.34
2022-08-22T00:03:00.023Z,53.32
2022-08-22T00:03:02.937Z,59.59
2022-08-22T00:03:22.585Z,67.37
2022-08-22T00:05:58.347Z,68.35
2022-08-22T00:08:55.611Z,70.37
2022-08-22T00:11:39.430Z,69.39
2022-08-22T00:14:19.397Z,69.48
2022-08-22T00:17:06.337Z,70.19
2022-08-22T00:19:52.043Z,68.66
2022-08-22T00:22:45.331Z,70.53
2022-08-22T00:25:26.395Z,69.77
2022-08-22T00:28:06.095Z,70.22
2022-08-22T00:30:43.542Z,69.86
2022-08-22T00:33:30.794Z,70.32
2022-08-22T00:36:26.603Z,68.74
2022-08-22T00:39:06.178Z,68.59
2022-08-22T00:42:14.667Z,69.84
2022-08-22T00:44:51.972Z,67.15
2022-08-22T00:47:46.187Z,70.42
2022-08-22T00:50:49.642Z,69.82
2022-08-22T00:53:31.740Z,70.43
2022-08-22T00:56:26.308Z,71.24
2022-08-22T00:59:18.026Z,71.11
2022-08-22T01:02:28.686Z,71.38
2022-08-22T01:05:07.621Z,70.55
2022-08-22T01:07:45.601Z,68.29
2022-08-22T01:10:24.389Z,69.84
2022-08-22T01:13:15.680Z,71.44
2022-08-22T01:15:43.920Z,69.67
2022-08-22T01:18:32.592Z,69.14
2022-08-22T01:20:59.372Z,68.12
2022-08-22T01:23:47.188Z,69.42
2022-08-22T01:26:38.342Z,69.97
2022-08-22T01:29:28.270Z,70.22
2022-08-22T01:32:20.586Z,70.16
2022-08-22T01:35:05.643Z,69.48
2022-08-22T01:37:59.029Z,70.28
2022-08-22T01:40:34.765Z,69.00
2022-08-22T01:43:17.511Z,68.02
2022-08-22T01:45:55.965Z,70.04
2022-08-22T01:48:53.727Z,70.28
2022-08-22T01:51:32.398Z,68.10
2022-08-22T01:54:12.949Z,69.53
2022-08-22T01:56:45.650Z,69.35
2022-08-22T01:59:28.903Z,67.49
2022-08-22T02:02:18.564Z,68.16
2022-08-22T02:04:48.060Z,67.81
2022-08-22T02:07:39.981Z,70.39
2022-08-22T02:10:43.660Z,69.78
2022-08-22T02:13:25.215Z,69.63
2022-08-22T02:16:17.909Z,69.40
2022-08-22T02:18:58.275Z,70.08
2022-08-22T02:21:46.088Z,70.13
2022-08-22T02:24:24.720Z,69.25
2022-08-22T02:27:06.224Z,69.23
2022-08-22T02:29:44.629Z,70.57
2022-08-22T02:32:11.012Z,72.19
2022-08-22T02:35:38.782Z,71.81
2022-08-22T02:38:08.117Z,72.24
2022-08-22T02:40:40.199Z,70.46
2022-08-22T02:43:21.712Z,70.10
2022-08-22T02:45:56.006Z,70.63
2022-08-22T02:48:27.704Z,71.59
2022-08-22T02:50:59.439Z,71.11
2022-08-22T02:53:47.525Z,71.54
2022-08-22T02:56:24.484Z,72.53
2022-08-22T02:58:59.335Z,72.81
2022-08-22T03:01:29.824Z,74.01
2022-08-22T03:04:24.343Z,74.33
2022-08-22T03:07:21.853Z,73.93
2022-08-22T03:10:10.296Z,74.39
2022-08-22T03:12:59.497Z,75.16
2022-08-22T03:15:38.016Z,73.91
2022-08-22T03:18:26.336Z,74.38
2022-08-22T03:20:59.959Z,75.48
2022-08-22T03:23:32.222Z,75.15
2022-08-22T03:26:18.996Z,74.24
2022-08-22T03:28:58.998Z,75.71
2022-08-22T03:31:28.984Z,75.61
2022-08-22T03:34:25.159Z,75.83
2022-08-22T03:37:42.913Z,75.89
2022-08-22T03:40:46.485Z,73.57
2022-08-22T03:43:22.229Z,73.47
2022-08-22T03:46:25.830Z,72.88
2022-08-22T03:49:40.031Z,76.19
2022-08-22T03:52:21.509Z,74.42
2022-08-22T03:55:09.747Z,73.40
2022-08-22T03:57:36.129Z,77.13
2022-08-22T04:00:13.106Z,77.00
2022-08-22T04:03:07.722Z,76.21
2022-08-22T04:05:54.269Z,77.30
2022-08-22T04:08:44.818Z,75.33
2022-08-22T04:11:41.357Z,75.08
2022-08-22T04:14:16.841Z,75.72
2022-08-22T04:17:04.247Z,77.55
2022-08-22T04:19:30.767Z,77.56
2022-08-22T04:22:28.789Z,76.85
2022-08-22T04:25:17.262Z,78.11
2022-08-22T04:28:07.298Z,79.39
2022-08-22T04:30:42.899Z,79.87
2022-08-22T04:33:12.271Z,77.48
2022-08-22T04:35:51.820Z,77.08
2022-08-22T04:38:30.926Z,78.49
2022-08-22T04:41:04.595Z,78.82
2022-08-22T04:43:46.910Z,75.75
2022-08-22T04:46:26.308Z,72.72
2022-08-22T04:49:12.650Z,72.33
2022-08-22T04:52:02.476Z,72.03
2022-08-22T04:54:54.655Z,72.09
2022-08-22T04:57:39.111Z,72.92
2022-08-22T05:00:09.036Z,73.13
2022-08-22T05:02:40.170Z,72.91
2022-08-22T05:05:15.799Z,72.32
2022-08-22T05:07:49.194Z,73.04
2022-08-22T05:10:36.399Z,72.28
2022-08-22T05:13:09.607Z,72.94
2022-08-22T05:15:41.334Z,71.56
2022-08-22T05:18:14.341Z,71.68
2022-08-22T05:20:45.584Z,69.63
2022-08-22T05:23:41.557Z,70.25
2022-08-22T05:26:10.994Z,69.96
2022-08-22T05:28:43.263Z,69.97
2022-08-22T05:31:14.985Z,68.13
2022-08-22T05:33:46.705Z,65.79
2022-08-22T05:36:23.078Z,64.65
2022-08-22T05:39:04.847Z,62.99
2022-08-22T05:41:36.851Z,60.55
2022-08-22T05:44:04.946Z,59.59
2022-08-22T05:46:44.527Z,55.79
2022-08-22T05:49:30.882Z,53.60
2022-08-22T05:52:23.696Z,57.99
2022-08-22T05:55:01.696Z,53.93
2022-08-22T05:57:38.312Z,53.22
2022-08-22T06:00:12.605Z,54.01
2022-08-22T06:03:38.466Z,52.50
2022-08-22T06:06:14.378Z,55.14
2022-08-22T06:09:06.927Z,48.71
2022-08-22T06:12:00.201Z,52.00
2022-08-22T06:14:35.790Z,52.08
2022-08-22T06:17:11.696Z,57.70
2022-08-22T06:19:42.822Z,48.17
2022-08-22T06:22:10.274Z,50.05
2022-08-22T06:24:41.048Z,45.25
2022-08-22T06:27:12.809Z,47.00
2022-08-22T06:29:44.380Z,50.46
2022-08-22T06:32:44.361Z,44.83
2022-08-22T06:35:22.340Z,48.57
2022-08-22T06:37:51.802Z,50.94
2022-08-22T06:40:19.003Z,49.84
2022-08-22T06:42:51.765Z,45.25
2022-08-22T06:45:32.502Z,44.46
2022-08-22T06:48:05.006Z,40.51
2022-08-22T06:50:42.657Z,51.45
2022-08-22T06:53:12.062Z,47.88
2022-08-22T06:55:42.989Z,41.74
2022-08-22T06:58:17.219Z,38.39
2022-08-22T07:00:51.522Z,48.37
2022-08-22T07:03:35.122Z,38.83
2022-08-22T07:06:03.260Z,53.05
2022-08-22T07:08:37.183Z,52.27
2022-08-22T07:11:11.769Z,52.57
2022-08-22T07:13:42.944Z,48.33
2022-08-22T07:16:10.913Z,51.05
2022-08-22T07:18:49.898Z,36.52
2022-08-22T07:21:41.281Z,37.10
2022-08-22T07:24:10.193Z,38.83
2022-08-22T07:26:47.263Z,36.24
2022-08-22T07:29:24.053Z,39.75
2022-08-22T07:32:12.191Z,36.43
2022-08-22T07:34:57.036Z,36.55
2022-08-22T07:37:38.808Z,35.86
2022-08-22T07:40:11.395Z,38.41
2022-08-22T07:42:51.967Z,35.78
2022-08-22T07:45:40.679Z,34.84
2022-08-22T07:48:26.608Z,35.83
2022-08-22T07:51:15.926Z,34.77
2022-08-22T07:53:47.456Z,34.05
2022-08-22T07:56:29.381Z,37.21
2022-08-22T07:59:05.745Z,33.77
2022-08-22T08:01:37.347Z,39.31
2022-08-22T08:04:08.838Z,36.47
2022-08-22T08:06:35.816Z,36.94
2022-08-22T08:09:03.167Z,35.19
2022-08-22T08:11:39.821Z,35.50
2022-08-22T08:14:08.804Z,38.37
2022-08-22T08:16:47.669Z,38.69
2022-08-22T08:19:16.863Z,37.02
2022-08-22T08:21:49.849Z,33.49
2022-08-22T08:24:22.296Z,35.73
2022-08-22T08:27:15.671Z,34.61
2022-08-22T08:29:58.857Z,31.69
2022-08-22T08:32:31.252Z,32.43
2022-08-22T08:34:59.397Z,32.02
2022-08-22T08:37:47.395Z,30.08
2022-08-22T08:40:26.555Z,32.51
2022-08-22T08:43:27.966Z,31.82
2022-08-22T08:45:59.155Z,34.76
2022-08-22T08:49:00.687Z,32.04
2022-08-22T08:51:54.520Z,30.38
2022-08-22T08:54:39.959Z,30.20
2022-08-22T08:57:16.493Z,30.83
2022-08-22T09:00:15.921Z,29.03
2022-08-22T09:02:45.384Z,26.80
2022-08-22T09:05:40.489Z,28.71
2022-08-22T09:08:19.116Z,29.98
2022-08-22T09:10:58.195Z,30.34
2022-08-22T09:13:53.310Z,29.60
2022-08-22T09:16:22.603Z,30.06
2022-08-22T09:19:34.741Z,28.96
2022-08-22T09:22:05.448Z,31.18
2022-08-22T09:24:59.800Z,29.70
2022-08-22T09:27:45.602Z,30.05
2022-08-22T09:30:28.578Z,28.93
2022-08-22T09:33:14.808Z,27.62
2022-08-22T09:36:00.958Z,28.18
2022-08-22T09:39:05.904Z,28.90
2022-08-22T09:42:08.870Z,27.52
2022-08-22T09:45:00.240Z,26.85
2022-08-22T09:47:34.375Z,29.29
2022-08-22T09:50:36.546Z,29.48
2022-08-22T09:53:31.992Z,29.69
2022-08-22T09:56:18.792Z,28.45
2022-08-22T09:59:16.794Z,28.43
2022-08-22T10:01:57.577Z,28.97
2022-08-22T10:04:45.249Z,27.87
2022-08-22T10:07:30.270Z,27.18
2022-08-22T10:10:26.175Z,27.87
2022-08-22T10:13:04.023Z,29.50
2022-08-22T10:15:45.967Z,29.51
2022-08-22T10:18:52.689Z,30.49
2022-08-22T10:21:30.991Z,29.38
2022-08-22T10:24:25.785Z,28.64
2022-08-22T10:27:07.547Z,29.25
2022-08-22T10:29:51.526Z,30.80
2022-08-22T10:33:06.428Z,30.81
2022-08-22T10:36:05.110Z,28.93
2022-08-22T10:38:46.421Z,30.46
2022-08-22T10:41:51.697Z,29.20
2022-08-22T10:44:49.613Z,30.87
2022-08-22T10:47:26.729Z,30.58
2022-08-22T10:50:08.695Z,32.92
2022-08-22T10:52:51.417Z,32.31
2022-08-22T10:55:27.402Z,33.64
2022-08-22T10:58:12.734Z,35.14
2022-08-22T11:00:50.715Z,34.75
2022-08-22T11:03:28.190Z,35.42
2022-08-22T11:06:00.316Z,35.75
2022-08-22T11:08:47.839Z,34.01
2022-08-22T11:11:20.266Z,33.07
2022-08-22T11:14:21.954Z,33.41
2022-08-22T11:17:27.942Z,32.69
2022-08-22T11:20:16.595Z,33.68
2022-08-22T11:22:46.054Z,34.71
2022-08-22T11:25:41.219Z,35.07
2022-08-22T11:28:30.130Z,34.54
2022-08-22T11:31:23.313Z,32.65
2022-08-22T11:34:09.321Z,35.25
2022-08-22T11:36:51.423Z,35.78
2022-08-22T11:39:34.765Z,36.35
2022-08-22T11:42:31.296Z,36.87
2022-08-22T11:45:01.481Z,36.23
2022-08-22T11:47:33.012Z,36.03
2022-08-22T11:50:02.305Z,35.12
2022-08-22T11:52:52.118Z,35.16
2022-08-22T11:55:30.814Z,34.98
2022-08-22T11:58:15.800Z,33.22
2022-08-22T12:01:18.498Z,33.73
2022-08-22T12:04:17.904Z,33.40
2022-08-22T12:07:13.626Z,31.86
2022-08-22T12:10:02.914Z,31.09
2022-08-22T12:12:55.450Z,32.11
2022-08-22T12:15:24.499Z,32.58
2022-08-22T12:17:55.741Z,33.13
2022-08-22T12:20:46.477Z,33.76
2022-08-22T12:23:49.687Z,33.20
2022-08-22T12:26:37.904Z,34.07
2022-08-22T12:29:34.012Z,32.33
2022-08-22T12:32:15.360Z,31.78
2022-08-22T12:35:01.012Z,31.80
2022-08-22T12:37:56.819Z,30.36
2022-08-22T12:40:47.709Z,31.15
2022-08-22T12:43:24.735Z,32.72
2022-08-22T12:46:18.234Z,29.41
2022-08-22T12:49:09.761Z,31.11
2022-08-22T12:52:09.321Z,31.61
2022-08-22T12:57:24.587Z,32.94
2022-08-22T13:00:22.984Z,32.36
2022-08-22T13:02:55.500Z,32.84
2022-08-22T13:05:26.462Z,32.46
2022-08-22T13:08:04.288Z,31.72
2022-08-22T13:10:47.872Z,33.38
2022-08-22T13:13:36.482Z,31.23
2022-08-22T13:16:13.453Z,32.54
2022-08-22T13:18:46.377Z,32.93
2022-08-22T13:21:16.648Z,33.69
2022-08-22T13:23:54.776Z,33.94
2022-08-22T13:26:33.035Z,34.34
2022-08-22T13:32:01.016Z,33.82
2022-08-22T13:34:38.406Z,34.55
2022-08-22T13:37:15.037Z,34.14
2022-08-22T13:39:47.086Z,33.95
2022-08-22T13:42:30.045Z,33.90
2022-08-22T13:45:04.615Z,32.78
2022-08-22T13:47:39.740Z,33.33
2022-08-22T13:50:14.740Z,32.65
2022-08-22T13:52:52.499Z,33.24
2022-08-22T13:55:37.067Z,32.62
2022-08-22T13:58:06.720Z,32.99
2022-08-22T14:01:18.336Z,31.32
2022-08-22T14:04:34.703Z,31.60
2022-08-22T14:07:06.056Z,31.61
2022-08-22T14:09:43.154Z,31.91
2022-08-22T14:12:21.090Z,29.81
2022-08-22T14:14:57.115Z,31.16
2022-08-22T14:17:33.848Z,31.00
2022-08-22T14:20:11.114Z,30.31
2022-08-22T14:22:42.700Z,31.28
2022-08-22T14:25:19.319Z,31.20
2022-08-22T14:27:52.688Z,29.85
2022-08-22T14:30:24.414Z,30.92
2022-08-22T14:33:34.554Z,29.94
2022-08-22T14:36:13.276Z,30.64
2022-08-22T14:38:47.134Z,30.73
2022-08-22T14:41:56.377Z,31.62
2022-08-22T14:44:36.708Z,30.33
2022-08-22T14:47:34.492Z,31.53
2022-08-22T14:49:58.328Z,31.40
2022-08-22T14:52:34.438Z,31.81
2022-08-22T14:55:23.860Z,31.80
2022-08-22T14:58:18.467Z,31.54
2022-08-22T15:00:56.534Z,31.82
2022-08-22T15:03:32.336Z,31.43
2022-08-22T15:06:07.974Z,31.41
2022-08-22T15:08:49.278Z,31.25
2022-08-22T15:11:20.758Z,32.24
2022-08-22T15:14:25.836Z,30.84
2022-08-22T15:16:57.254Z,31.92
2022-08-22T15:19:41.216Z,31.17
2022-08-22T15:22:17.330Z,31.19
2022-08-22T15:25:02.771Z,31.21
2022-08-22T15:27:32.273Z,31.43
2022-08-22T15:30:02.832Z,32.22
2022-08-22T15:32:31.965Z,32.28
2022-08-22T15:35:17.784Z,32.19
2022-08-22T15:37:59.954Z,32.20
2022-08-22T15:40:40.814Z,32.03
2022-08-22T15:43:35.049Z,31.57
2022-08-22T15:46:17.832Z,31.87
2022-08-22T15:49:03.168Z,31.96
2022-08-22T15:51:43.370Z,32.90
2022-08-22T15:54:25.582Z,32.45
2022-08-22T15:56:52.930Z,31.65
2022-08-22T15:59:53.707Z,32.40
2022-08-22T16:02:38.684Z,31.81
2022-08-22T16:05:11.552Z,33.08
2022-08-22T16:07:49.579Z,32.74
2022-08-22T16:10:22.281Z,33.28
2022-08-22T16:13:25.997Z,32.68
2022-08-22T16:15:59.198Z,32.13
2022-08-22T16:18:39.357Z,32.94
2022-08-22T16:21:18.150Z,32.70
2022-08-22T16:23:54.090Z,33.01
2022-08-22T16:26:44.208Z,33.47
2022-08-22T16:29:13.664Z,32.90
2022-08-22T16:31:44.425Z,32.93
2022-08-22T16:34:17.057Z,32.58
2022-08-22T16:37:08.136Z,33.39
2022-08-22T16:39:41.108Z,33.40
2022-08-22T16:42:23.040Z,33.70
2022-08-22T16:45:11.671Z,33.03
2022-08-22T16:47:58.378Z,33.61
2022-08-22T16:50:31.327Z,33.83
2022-08-22T16:53:05.265Z,33.86
2022-08-22T16:55:32.666Z,33.83
2022-08-22T16:58:06.995Z,33.69
2022-08-22T17:00:36.636Z,33.36
2022-08-22T17:03:19.489Z,33.73
2022-08-22T17:05:52.265Z,33.43
2022-08-22T17:08:40.693Z,34.67
2022-08-22T17:11:35.341Z,35.00
2022-08-22T17:14:20.393Z,35.18
2022-08-22T17:16:49.755Z,35.19
2022-08-22T17:19:59.096Z,35.39
2022-08-22T17:22:43.268Z,35.25
2022-08-22T17:25:22.146Z,35.62
2022-08-22T17:28:03.267Z,35.57
2022-08-22T17:30:46.079Z,36.33
2022-08-22T17:33:43.210Z,37.03
2022-08-22T17:36:26.677Z,37.48
2022-08-22T17:39:00.017Z,38.21
2022-08-22T17:41:45.154Z,38.69
2022-08-22T17:44:30.210Z,38.71
2022-08-22T17:47:08.674Z,40.15
2022-08-22T17:49:35.228Z,39.82
2022-08-22T17:52:21.886Z,40.49
2022-08-22T17:54:56.978Z,40.40
2022-08-22T17:57:23.565Z,40.85
2022-08-22T18:00:15.470Z,40.97
2022-08-22T18:02:57.600Z,41.13
2022-08-22T18:05:31.988Z,40.98
2022-08-22T18:11:29.310Z,42.45
2022-08-22T18:13:58.674Z,39.54
2022-08-22T18:16:37.945Z,42.16
2022-08-22T18:19:29.169Z,41.93
2022-08-22T18:22:33.593Z,41.39
2022-08-22T18:25:28.801Z,41.53
2022-08-22T18:28:00.113Z,39.65
2022-08-22T18:30:37.006Z,40.82
2022-08-22T18:33:25.523Z,41.17
2022-08-22T18:36:01.073Z,43.83
2022-08-22T18:38:52.533Z,44.27
2022-08-22T18:41:19.149Z,43.39
2022-08-22T18:43:50.903Z,46.66
2022-08-22T18:46:33.041Z,46.81
2022-08-22T18:49:19.883Z,47.18
2022-08-22T18:52:08.530Z,47.70
2022-08-22T18:54:58.853Z,47.25
2022-08-22T18:58:24.207Z,47.40
2022-08-22T19:01:07.471Z,45.52
2022-08-22T19:03:52.308Z,45.86
2022-08-22T19:06:37.712Z,46.74
2022-08-22T19:09:20.105Z,46.32
2022-08-22T19:12:16.298Z,47.60
2022-08-22T19:15:17.016Z,48.07
2022-08-22T19:17:58.763Z,48.79
2022-08-22T19:20:50.717Z,49.80
2022-08-22T19:23:41.739Z,51.87
2022-08-22T19:26:35.016Z,51.65
2022-08-22T19:29:16.586Z,51.68
2022-08-22T19:31:50.432Z,52.96
2022-08-22T19:34:26.079Z,53.10
2022-08-22T19:37:30.879Z,54.16
2022-08-22T19:40:07.310Z,53.57
2022-08-22T19:42:40.156Z,53.66
2022-08-22T19:45:07.042Z,53.30
2022-08-22T19:47:37.849Z,54.61
2022-08-22T19:50:16.713Z,55.24
2022-08-22T19:52:56.870Z,54.85
2022-08-22T19:55:38.783Z,55.59
2022-08-22T19:58:13.064Z,54.55
2022-08-22T20:01:06.294Z,54.42
2022-08-22T20:03:54.324Z,54.13
2022-08-22T20:06:40.799Z,53.10
2022-08-22T20:09:13.744Z,51.72
2022-08-22T20:11:48.305Z,53.22
2022-08-22T20:14:30.280Z,53.15
2022-08-22T20:17:33.825Z,52.38
2022-08-22T20:20:24.059Z,51.36
2022-08-22T20:23:22.972Z,52.29
2022-08-22T20:25:52.915Z,51.10
2022-08-22T20:28:41.201Z,51.28
2022-08-22T20:31:25.875Z,49.74
2022-08-22T20:33:58.893Z,50.26
2022-08-22T20:36:27.620Z,50.16
2022-08-22T20:39:01.860Z,50.65
2022-08-22T20:41:39.790Z,51.08
2022-08-22T20:44:20.093Z,52.08
2022-08-22T20:46:46.868Z,52.85
2022-08-22T20:49:28.607Z,53.00
2022-08-22T20:52:11.539Z,55.27
2022-08-22T20:54:41.045Z,55.16
2022-08-22T20:57:19.375Z,55.45
2022-08-22T20:59:53.827Z,54.07
2022-08-22T21:02:39.333Z,53.50
2022-08-22T21:05:21.302Z,53.65
2022-08-22T21:08:02.337Z,51.54
2022-08-22T21:10:49.507Z,52.42
2022-08-22T21:13:19.774Z,52.74
2022-08-22T21:15:52.873Z,51.99
2022-08-22T21:18:38.129Z,52.84
2022-08-22T21:21:18.254Z,54.55
2022-08-22T21:24:07.801Z,54.67
2022-08-22T21:26:51.713Z,55.96
2022-08-22T21:29:23.401Z,56.02
2022-08-22T21:32:04.555Z,56.77
2022-08-22T21:34:41.477Z,56.43
2022-08-22T21:37:12.480Z,54.16
2022-08-22T21:39:46.076Z,55.73
2022-08-22T21:42:23.835Z,56.89
2022-08-22T21:45:09.414Z,56.93
2022-08-22T21:47:41.513Z,55.00
2022-08-22T21:50:23.580Z,56.63
2022-08-22T21:52:56.351Z,56.46
2022-08-22T21:55:34.482Z,57.33
2022-08-22T21:58:35.962Z,58.20
2022-08-22T22:01:30.375Z,58.70
2022-08-22T22:04:01.198Z,58.26
2022-08-22T22:06:28.059Z,57.93
2022-08-22T22:08:55.424Z,56.39
2022-08-22T22:11:22.195Z,58.92
2022-08-22T22:13:49.063Z,58.17
2022-08-22T22:16:56.773Z,58.26
2022-08-22T22:19:23.647Z,58.34
2022-08-22T22:21:50.206Z,59.11
2022-08-22T22:24:16.772Z,57.53
2022-08-22T22:26:43.377Z,58.93
2022-08-22T22:29:10.831Z,59.17
2022-08-22T22:31:37.442Z,58.37
2022-08-22T22:34:04.109Z,59.14
2022-08-22T22:36:30.908Z,59.51
2022-08-22T22:38:57.691Z,58.07
2022-08-22T22:41:25.655Z,58.57
2022-08-22T22:43:53.854Z,59.03
2022-08-22T22:46:21.734Z,58.63
2022-08-22T22:48:48.454Z,59.02
2022-08-22T22:51:15.285Z,57.20
2022-08-22T22:53:42.696Z,57.39
2022-08-22T22:56:13.928Z,59.05
2022-08-22T22:58:41.107Z,59.15
2022-08-22T23:01:14.294Z,60.62
2022-08-22T23:03:41.776Z,57.65
2022-08-22T23:06:19.312Z,58.32
2022-08-22T23:08:47.009Z,58.72
2022-08-22T23:11:16.815Z,59.42
2022-08-22T23:13:43.558Z,58.79
2022-08-22T23:16:13.853Z,59.24
2022-08-22T23:18:41.976Z,59.74
2022-08-22T23:21:13.179Z,59.99
2022-08-22T23:23:40.145Z,59.53
2022-08-22T23:26:07.458Z,61.86
2022-08-22T23:28:34.218Z,61.34
2022-08-22T23:31:15.076Z,60.44
2022-08-22T23:33:42.582Z,60.30
2022-08-22T23:36:16.469Z,60.93
2022-08-22T23:38:44.123Z,62.42
2022-08-22T23:41:12.955Z,62.22
2022-08-22T23:43:45.781Z,62.09
2022-08-22T23:46:14.378Z,61.12
2022-08-22T23:48:41.860Z,60.22
2022-08-22T23:51:10.742Z,61.91
2022-08-22T23:53:38.213Z,62.29
2022-08-22T23:56:19.220Z,62.61
2022-08-22T23:58:46.796Z,62.98
